Time;durP1;ratioP1;P1;durP2;ratioP2;P2;SDS_P1;SDS_P2;PMS_P1;PMS_P2;Temp;Humidity;BMP_temperature;BMP_pressure;BME280_temperature;BME280_humidity;BME280_pressure;Samples;Min_cycle;Max_cycle;Signal;HPM_P1;HPM_P2
2023/06/16 00:02:48;;;;;;;7.50;6.90;;;17.60;99.90;;;;;;6393241;27;20510;-61
2023/06/16 00:05:51;;;;;;;8.97;7.40;;;17.50;99.90;;;;;;6388097;27;20465;-61
2023/06/16 00:08:55;;;;;;;9.30;8.50;;;17.40;99.90;;;;;;6389890;27;20216;-61
2023/06/16 00:11:59;;;;;;;9.20;8.30;;;17.30;99.90;;;;;;6391418;27;20469;-61
2023/06/16 00:15:04;;;;;;;8.20;7.40;;;17.20;99.90;;;;;;6390088;27;20798;-61
2023/06/16 00:18:07;;;;;;;7.53;6.83;;;17.10;99.90;;;;;;6387558;27;20450;-61
2023/06/16 00:21:10;;;;;;;8.23;7.43;;;17.00;99.90;;;;;;6378260;27;20798;-61
2023/06/16 00:24:13;;;;;;;8.87;8.17;;;16.80;99.90;;;;;;6381860;27;20432;-61
2023/06/16 00:27:17;;;;;;;9.50;8.70;;;16.90;99.90;;;;;;6393111;27;20514;-61
2023/06/16 00:30:21;;;;;;;8.47;7.80;;;16.80;99.90;;;;;;6388854;27;20944;-62
2023/06/16 00:33:25;;;;;;;8.50;7.80;;;16.80;99.90;;;;;;6368330;27;20812;-61
2023/06/16 00:36:28;;;;;;;7.77;7.10;;;16.60;99.90;;;;;;6400207;27;20937;-61
2023/06/16 00:39:31;;;;;;;8.10;7.40;;;16.60;99.90;;;;;;6402114;27;20476;-61
2023/06/16 00:42:34;;;;;;;9.37;8.50;;;16.50;99.90;;;;;;6401827;27;20465;-61
2023/06/16 00:45:39;;;;;;;10.97;8.50;;;16.50;99.90;;;;;;6401518;27;20461;-61
2023/06/16 00:48:42;;;;;;;8.00;7.30;;;16.50;99.90;;;;;;6401813;27;20814;-61
2023/06/16 00:51:47;;;;;;;8.87;8.07;;;16.40;99.90;;;;;;6401473;27;20630;-61
2023/06/16 00:54:51;;;;;;;8.37;7.70;;;16.30;99.90;;;;;;6401646;27;20461;-62
2023/06/16 00:57:54;;;;;;;9.47;8.20;;;16.30;99.90;;;;;;6401675;27;20537;-62
2023/06/16 01:00:59;;;;;;;9.27;8.00;;;16.30;99.90;;;;;;6401091;27;20493;-61
2023/06/16 01:04:03;;;;;;;9.83;9.03;;;16.30;99.90;;;;;;6401402;27;20909;-61
2023/06/16 01:07:12;;;;;;;8.87;8.13;;;16.20;99.90;;;;;;6401464;27;20952;-62
2023/06/16 01:10:20;;;;;;;8.60;7.80;;;16.20;99.90;;;;;;6401832;27;20614;-61
2023/06/16 01:13:30;;;;;;;8.47;7.53;;;16.20;99.90;;;;;;6401442;27;20911;-61
2023/06/16 01:16:36;;;;;;;10.00;9.20;;;16.20;99.90;;;;;;6401408;27;20473;-61
2023/06/16 01:19:47;;;;;;;8.57;7.50;;;16.20;99.90;;;;;;6400914;27;20545;-62
2023/06/16 01:22:58;;;;;;;8.67;7.97;;;16.20;99.90;;;;;;6400912;27;20476;-62
2023/06/16 01:26:05;;;;;;;8.33;7.63;;;16.20;99.90;;;;;;6400865;27;20457;-62
2023/06/16 01:29:10;;;;;;;12.03;8.40;;;16.20;99.90;;;;;;6401124;27;20472;-62
2023/06/16 01:32:16;;;;;;;8.83;8.13;;;16.20;99.90;;;;;;6400898;27;20461;-62
2023/06/16 01:35:21;;;;;;;8.53;7.73;;;16.20;99.90;;;;;;6401103;27;20540;-62
2023/06/16 01:38:26;;;;;;;9.40;8.50;;;16.30;99.90;;;;;;6395552;27;20468;-62
2023/06/16 01:41:31;;;;;;;8.73;7.87;;;16.20;99.90;;;;;;6400657;27;20490;-62
2023/06/16 01:44:36;;;;;;;9.13;7.27;;;16.20;99.90;;;;;;6400442;27;20547;-62
2023/06/16 01:47:39;;;;;;;9.07;8.23;;;16.20;99.90;;;;;;6400966;27;20603;-62
2023/06/16 01:50:43;;;;;;;8.70;7.90;;;16.20;99.90;;;;;;6400640;27;20504;-62
2023/06/16 01:53:46;;;;;;;9.00;8.10;;;16.20;99.90;;;;;;6400738;27;20457;-62
2023/06/16 01:56:51;;;;;;;9.03;8.23;;;16.30;99.90;;;;;;6400534;27;20552;-62
2023/06/16 02:00:00;;;;;;;8.77;7.97;;;16.30;99.90;;;;;;6400532;27;20477;-62
2023/06/16 02:03:08;;;;;;;8.87;8.07;;;16.20;99.90;;;;;;6400737;27;20473;-61
2023/06/16 02:06:18;;;;;;;8.97;8.17;;;16.20;99.90;;;;;;6392587;27;20809;-61
2023/06/16 02:09:23;;;;;;;8.67;7.97;;;16.20;99.90;;;;;;6374686;28;20437;-62
2023/06/16 02:12:28;;;;;;;9.47;8.57;;;16.20;99.90;;;;;;6375030;28;20460;-62
2023/06/16 02:15:32;;;;;;;9.20;8.30;;;16.10;99.90;;;;;;6374907;28;20463;-62
2023/06/16 02:18:35;;;;;;;9.90;8.90;;;16.10;99.90;;;;;;6374200;28;20469;-62
2023/06/16 02:21:38;;;;;;;9.40;8.60;;;16.10;99.90;;;;;;6374813;28;20514;-62
2023/06/16 02:24:42;;;;;;;9.40;8.50;;;16.10;99.90;;;;;;6375169;28;20473;-62
2023/06/16 02:27:46;;;;;;;9.93;9.10;;;16.10;99.90;;;;;;6374544;28;20958;-61
2023/06/16 02:30:50;;;;;;;9.13;8.23;;;16.10;99.90;;;;;;6374393;28;20462;-62
2023/06/16 02:33:54;;;;;;;9.23;8.40;;;16.20;99.90;;;;;;6374526;28;20473;-62
2023/06/16 02:36:57;;;;;;;11.60;8.90;;;16.20;99.90;;;;;;6374789;28;20470;-62
2023/06/16 02:40:01;;;;;;;10.40;9.17;;;16.30;99.90;;;;;;6374208;28;20793;-62
2023/06/16 02:43:05;;;;;;;10.23;9.23;;;16.30;99.90;;;;;;6374192;28;20462;-61
2023/06/16 02:46:08;;;;;;;10.70;8.33;;;16.30;99.90;;;;;;6373731;28;20970;-61
2023/06/16 02:49:12;;;;;;;8.10;7.30;;;16.30;99.90;;;;;;6377233;28;20473;-62
2023/06/16 02:52:16;;;;;;;10.20;9.30;;;16.00;99.90;;;;;;6375186;28;20462;-62
2023/06/16 02:55:20;;;;;;;8.83;8.10;;;16.00;99.90;;;;;;6376961;27;20462;-61
2023/06/16 02:58:25;;;;;;;13.23;9.50;;;15.90;99.90;;;;;;6379061;27;20479;-61
2023/06/16 03:01:28;;;;;;;8.83;7.70;;;15.90;99.90;;;;;;6379273;27;20463;-61
2023/06/16 03:04:34;;;;;;;9.97;8.67;;;15.80;99.90;;;;;;6378548;27;20462;-61
2023/06/16 03:07:38;;;;;;;9.80;8.93;;;15.70;99.90;;;;;;6378736;27;20466;-61
2023/06/16 03:10:41;;;;;;;11.13;8.73;;;15.60;99.90;;;;;;6378208;27;20569;-61
2023/06/16 03:13:46;;;;;;;9.30;8.50;;;15.50;99.90;;;;;;6378572;27;20480;-61
2023/06/16 03:16:50;;;;;;;9.47;8.77;;;15.40;99.90;;;;;;6378446;27;20470;-61
2023/06/16 03:19:53;;;;;;;8.93;8.23;;;15.40;99.90;;;;;;6379971;27;20471;-61
2023/06/16 03:22:56;;;;;;;8.50;7.80;;;15.30;99.90;;;;;;6377505;27;20488;-61
2023/06/16 03:25:59;;;;;;;8.33;7.63;;;15.30;99.90;;;;;;6378060;27;20466;-61
2023/06/16 03:29:05;;;;;;;10.67;8.27;;;15.30;99.90;;;;;;6378158;27;20556;-61
2023/06/16 03:32:08;;;;;;;7.80;7.10;;;15.20;99.90;;;;;;6378232;27;20989;-61
2023/06/16 03:35:12;;;;;;;9.47;8.40;;;15.20;99.90;;;;;;6378169;27;20473;-61
2023/06/16 03:38:15;;;;;;;8.23;7.43;;;15.20;99.90;;;;;;6377832;27;20470;-61
2023/06/16 03:41:18;;;;;;;8.80;8.00;;;15.20;99.90;;;;;;6377729;27;20489;-61
2023/06/16 03:44:22;;;;;;;10.50;9.50;;;15.10;99.90;;;;;;6377550;27;20477;-61
2023/06/16 03:47:27;;;;;;;8.17;7.47;;;15.10;99.90;;;;;;6378014;27;20489;-61
2023/06/16 03:50:30;;;;;;;10.40;9.00;;;15.20;99.90;;;;;;6377619;27;20499;-61
2023/06/16 03:53:33;;;;;;;8.80;8.00;;;15.10;99.90;;;;;;6377896;27;20458;-61
2023/06/16 03:56:36;;;;;;;9.70;8.70;;;15.20;99.90;;;;;;6377291;27;20471;-61
2023/06/16 03:59:41;;;;;;;10.83;8.30;;;15.30;99.90;;;;;;6377411;27;20484;-61
2023/06/16 04:02:44;;;;;;;9.43;8.50;;;15.30;99.90;;;;;;6377063;27;20478;-61
2023/06/16 04:05:48;;;;;;;8.17;7.43;;;15.30;99.90;;;;;;6377303;27;21000;-61
2023/06/16 04:08:51;;;;;;;9.07;8.37;;;15.30;99.90;;;;;;6376930;27;20458;-61
2023/06/16 04:11:55;;;;;;;9.50;8.60;;;15.40;99.90;;;;;;6376705;27;20996;-61
2023/06/16 04:14:59;;;;;;;9.43;8.33;;;15.40;99.90;;;;;;6368459;27;20777;-61
2023/06/16 04:18:03;;;;;;;9.53;8.07;;;15.40;99.90;;;;;;6376997;27;20674;-61
2023/06/16 04:21:06;;;;;;;9.13;8.43;;;15.50;99.90;;;;;;6376664;27;20450;-62
2023/06/16 04:24:10;;;;;;;8.30;7.60;;;15.50;99.90;;;;;;6376741;27;20520;-61
2023/06/16 04:27:13;;;;;;;8.57;7.80;;;15.60;99.90;;;;;;6376439;27;20442;-61
2023/06/16 04:30:22;;;;;;;8.03;7.30;;;15.60;99.90;;;;;;6375829;27;20472;-61
2023/06/16 04:33:25;;;;;;;9.93;8.30;;;15.70;99.90;;;;;;6376109;27;20474;-62
2023/06/16 04:36:29;;;;;;;8.37;7.63;;;15.80;99.90;;;;;;6376116;27;20466;-61
2023/06/16 04:39:33;;;;;;;8.93;8.13;;;15.90;99.90;;;;;;6375969;27;20853;-61
2023/06/16 04:42:36;;;;;;;9.10;8.20;;;16.00;99.90;;;;;;6375880;27;20481;-61
2023/06/16 04:45:41;;;;;;;8.10;7.40;;;16.00;99.90;;;;;;6375936;27;20568;-61
2023/06/16 04:48:44;;;;;;;9.30;8.50;;;16.10;99.90;;;;;;6375982;27;20541;-62
2023/06/16 04:51:47;;;;;;;8.80;7.90;;;16.10;99.90;;;;;;6375751;27;20485;-61
2023/06/16 04:54:50;;;;;;;9.63;8.63;;;16.20;99.90;;;;;;6375811;27;20782;-61
2023/06/16 04:57:53;;;;;;;9.70;8.50;;;16.30;99.90;;;;;;6375984;27;20785;-61
2023/06/16 05:00:58;;;;;;;9.10;8.20;;;16.40;99.90;;;;;;6375477;27;20480;-61
2023/06/16 05:04:01;;;;;;;8.80;8.00;;;16.60;99.90;;;;;;6375376;27;20546;-61
2023/06/16 05:07:05;;;;;;;8.30;7.60;;;16.90;99.90;;;;;;6375824;27;20554;-61
2023/06/16 05:10:09;;;;;;;9.57;8.67;;;17.20;99.90;;;;;;6376083;27;20472;-61
2023/06/16 05:13:12;;;;;;;10.53;7.57;;;17.50;99.90;;;;;;6375994;27;20469;-61
2023/06/16 05:16:17;;;;;;;9.73;8.00;;;17.70;99.90;;;;;;6375419;27;20995;-61
2023/06/16 05:19:20;;;;;;;9.80;9.00;;;17.90;99.30;;;;;;6375040;27;20951;-61
2023/06/16 05:22:24;;;;;;;9.10;7.70;;;18.00;98.80;;;;;;6375508;27;20462;-61
2023/06/16 05:25:28;;;;;;;7.77;7.07;;;18.00;98.30;;;;;;6375408;27;20869;-61
2023/06/16 05:28:33;;;;;;;7.50;6.80;;;18.00;98.30;;;;;;6374953;27;20762;-61
2023/06/16 05:31:38;;;;;;;9.13;7.63;;;18.20;98.60;;;;;;6375445;27;20316;-61
2023/06/16 05:34:41;;;;;;;8.67;7.33;;;18.50;98.30;;;;;;6375167;27;20327;-62
2023/06/16 05:37:44;;;;;;;9.00;8.10;;;18.80;98.00;;;;;;6375339;27;20228;-62
2023/06/16 05:40:47;;;;;;;9.13;8.00;;;19.00;97.60;;;;;;6374979;27;20233;-62
2023/06/16 05:43:52;;;;;;;9.07;7.87;;;19.20;97.40;;;;;;6374989;27;20232;-62
2023/06/16 05:46:57;;;;;;;8.23;7.50;;;19.40;97.00;;;;;;6374689;27;20247;-62
2023/06/16 05:50:00;;;;;;;8.13;7.30;;;19.60;96.30;;;;;;6374820;28;20568;-62
2023/06/16 05:53:04;;;;;;;9.80;7.87;;;19.80;95.90;;;;;;6370172;28;20232;-62
2023/06/16 05:56:07;;;;;;;10.70;8.30;;;19.90;95.20;;;;;;6374913;28;20228;-62
2023/06/16 05:59:10;;;;;;;7.67;6.97;;;20.10;95.20;;;;;;6374707;28;20220;-62
2023/06/16 06:02:15;;;;;;;8.43;7.20;;;20.20;95.30;;;;;;6374797;28;20225;-62
2023/06/16 06:05:19;;;;;;;8.60;7.80;;;20.50;95.10;;;;;;6374957;28;20236;-62
2023/06/16 06:08:26;;;;;;;9.17;8.30;;;20.70;94.60;;;;;;6374745;28;20229;-62
2023/06/16 06:11:29;;;;;;;8.60;7.70;;;20.90;94.00;;;;;;6374764;28;20225;-62
2023/06/16 06:14:32;;;;;;;10.03;7.90;;;21.00;94.10;;;;;;6374093;28;20235;-62
2023/06/16 06:17:37;;;;;;;8.03;7.00;;;21.10;93.40;;;;;;6374501;28;20686;-62
2023/06/16 06:20:41;;;;;;;8.70;7.80;;;21.10;93.20;;;;;;6374412;28;20700;-62
2023/06/16 06:23:45;;;;;;;9.57;8.63;;;21.20;93.40;;;;;;6374414;28;20232;-62
2023/06/16 06:26:48;;;;;;;11.03;8.70;;;21.20;93.10;;;;;;6374383;28;20264;-62
2023/06/16 06:29:51;;;;;;;10.80;7.50;;;21.10;93.00;;;;;;6375664;27;20313;-62
2023/06/16 06:33:01;;;;;;;8.70;7.30;;;21.00;93.30;;;;;;6386675;27;20644;-62
2023/06/16 06:36:05;;;;;;;11.33;8.27;;;21.20;93.50;;;;;;6391660;27;20223;-62
2023/06/16 06:39:08;;;;;;;9.63;8.80;;;21.50;93.20;;;;;;6387135;27;20303;-62
2023/06/16 06:42:12;;;;;;;9.60;8.50;;;21.60;93.00;;;;;;6390491;27;20282;-62
2023/06/16 06:45:15;;;;;;;8.87;7.97;;;21.70;92.40;;;;;;6389103;27;20246;-62
2023/06/16 06:48:20;;;;;;;10.10;8.30;;;21.60;92.20;;;;;;6383989;27;20203;-61
2023/06/16 06:51:23;;;;;;;7.63;7.03;;;21.60;92.40;;;;;;6381623;27;20224;-62
2023/06/16 06:54:26;;;;;;;8.90;8.00;;;21.70;92.40;;;;;;6387840;27;20232;-62
2023/06/16 06:57:29;;;;;;;9.90;8.90;;;22.00;92.10;;;;;;6388561;27;20232;-62
2023/06/16 07:00:33;;;;;;;9.10;7.80;;;22.40;91.50;;;;;;6391294;27;20222;-62
2023/06/16 07:03:37;;;;;;;8.17;7.47;;;22.50;91.40;;;;;;6381344;27;20315;-62
2023/06/16 07:06:41;;;;;;;8.97;8.17;;;22.60;91.30;;;;;;6385446;27;20238;-62
2023/06/16 07:09:44;;;;;;;10.10;8.73;;;22.90;90.80;;;;;;6389043;27;20220;-62
2023/06/16 07:12:47;;;;;;;9.13;8.27;;;22.90;90.40;;;;;;6403947;27;20234;-62
2023/06/16 07:15:50;;;;;;;8.70;7.80;;;23.00;90.40;;;;;;6404196;27;20220;-62
2023/06/16 07:18:55;;;;;;;8.50;7.23;;;23.30;90.10;;;;;;6391012;27;20549;-62
2023/06/16 07:22:00;;;;;;;8.47;7.50;;;24.20;88.40;;;;;;6376986;27;20676;-62
2023/06/16 07:25:04;;;;;;;7.90;7.20;;;25.60;84.30;;;;;;6392895;27;20304;-62
2023/06/16 07:28:07;;;;;;;9.27;8.47;;;26.40;80.90;;;;;;6390496;27;20250;-62
2023/06/16 07:31:10;;;;;;;8.80;7.87;;;27.40;76.30;;;;;;6389925;27;20219;-62
2023/06/16 07:34:15;;;;;;;8.60;7.10;;;28.30;71.50;;;;;;6388229;27;20216;-63
2023/06/16 07:37:18;;;;;;;8.03;7.33;;;29.20;66.80;;;;;;6383039;27;20726;-62
2023/06/16 07:40:22;;;;;;;7.47;6.50;;;30.10;61.80;;;;;;6364326;27;20221;-62
2023/06/16 07:43:25;;;;;;;6.87;6.27;;;30.80;56.30;;;;;;6360021;27;20235;-62
2023/06/16 07:46:28;;;;;;;6.70;6.10;;;31.00;51.30;;;;;;6377457;27;20239;-62
2023/06/16 07:49:33;;;;;;;6.35;5.75;;;31.00;49.30;;;;;;6356419;27;20247;-62
2023/06/16 07:52:36;;;;;;;5.75;5.25;;;30.60;48.80;;;;;;6383829;27;20246;-62
2023/06/16 07:55:39;;;;;;;5.40;5.00;;;30.20;46.80;;;;;;6402906;27;20230;-64
2023/06/16 07:58:43;;;;;;;5.43;4.93;;;29.90;45.60;;;;;;6377787;27;20224;-64
2023/06/16 08:01:47;;;;;;;6.38;5.88;;;29.70;45.20;;;;;;6368017;27;20315;-63
2023/06/16 08:04:51;;;;;;;6.07;5.57;;;29.40;45.30;;;;;;6377224;27;20232;-63
2023/06/16 08:07:55;;;;;;;6.00;5.60;;;28.90;45.20;;;;;;6377111;27;20581;-61
2023/06/16 08:10:58;;;;;;;6.10;5.57;;;28.70;46.70;;;;;;6376749;27;20629;-62
2023/06/16 08:14:01;;;;;;;7.03;6.20;;;28.70;46.80;;;;;;6365296;27;20311;-64
2023/06/16 08:17:05;;;;;;;5.53;5.03;;;28.70;46.70;;;;;;6351258;28;20224;-62
2023/06/16 08:20:11;;;;;;;6.13;5.63;;;28.40;47.60;;;;;;6351070;28;20736;-60
2023/06/16 08:23:14;;;;;;;6.07;5.50;;;28.30;46.70;;;;;;6350671;28;20285;-61
2023/06/16 08:26:18;;;;;;;5.63;5.00;;;28.00;46.20;;;;;;6350729;28;20281;-60
2023/06/16 08:29:22;;;;;;;6.40;5.37;;;27.40;47.80;;;;;;6350528;28;20560;-61
2023/06/16 08:32:25;;;;;;;5.80;5.30;;;27.20;49.00;;;;;;6350802;28;20234;-61
2023/06/16 08:35:30;;;;;;;6.10;5.60;;;27.30;49.20;;;;;;6351093;28;20317;-61
2023/06/16 08:38:33;;;;;;;5.83;5.40;;;27.40;48.80;;;;;;6384601;27;20289;-62
2023/06/16 08:41:38;;;;;;;6.00;5.50;;;27.50;49.20;;;;;;6378684;27;20689;-63
2023/06/16 08:44:43;;;;;;;6.53;5.93;;;27.50;48.70;;;;;;6375696;27;20548;-62
2023/06/16 08:47:46;;;;;;;6.70;6.00;;;27.50;48.30;;;;;;6367707;27;20224;-62
2023/06/16 08:50:52;;;;;;;6.63;6.00;;;27.60;48.30;;;;;;6350197;28;20228;-64
2023/06/16 08:54:00;;;;;;;6.27;5.57;;;27.70;48.40;;;;;;6349860;28;20655;-61
2023/06/16 08:57:07;;;;;;;5.90;5.30;;;27.80;47.70;;;;;;6349989;28;20243;-62
2023/06/16 09:00:12;;;;;;;6.40;5.60;;;27.70;46.80;;;;;;6350607;28;20594;-59
2023/06/16 09:03:17;;;;;;;5.50;5.10;;;27.70;45.60;;;;;;6340329;28;20208;-61
2023/06/16 09:06:21;;;;;;;5.00;4.60;;;27.60;45.00;;;;;;6349933;28;20708;-62
2023/06/16 09:09:25;;;;;;;5.53;5.03;;;27.70;46.80;;;;;;6350025;28;20229;-61
2023/06/16 09:12:29;;;;;;;6.57;5.97;;;27.50;46.10;;;;;;6349905;28;20608;-61
2023/06/16 09:15:35;;;;;;;9.73;5.93;;;27.50;44.90;;;;;;6364832;27;20216;-60
2023/06/16 09:18:40;;;;;;;7.20;5.87;;;27.40;44.30;;;;;;6374712;27;20555;-61
2023/06/16 09:21:53;;;;;;;6.13;5.50;;;27.50;44.80;;;;;;6374828;27;20687;-61
2023/06/16 09:24:58;;;;;;;5.40;4.90;;;27.60;45.50;;;;;;6349681;28;20220;-61
2023/06/16 09:28:08;;;;;;;6.90;5.63;;;27.70;46.20;;;;;;6367216;27;20216;-61
2023/06/16 09:31:15;;;;;;;5.83;5.30;;;27.90;44.80;;;;;;6387065;27;20231;-61
2023/06/16 09:34:18;;;;;;;6.23;5.63;;;27.90;43.50;;;;;;6356561;27;20224;-60
2023/06/16 09:37:25;;;;;;;6.27;5.70;;;27.90;43.90;;;;;;6370924;27;20655;-61
2023/06/16 09:40:29;;;;;;;5.87;5.47;;;27.80;42.60;;;;;;6349703;28;20237;-60
2023/06/16 09:43:32;;;;;;;6.63;6.03;;;27.40;43.40;;;;;;6368568;27;20228;-60
2023/06/16 09:46:36;;;;;;;5.87;5.37;;;27.30;43.30;;;;;;6374535;27;20228;-60
2023/06/16 09:49:39;;;;;;;6.67;6.07;;;27.00;43.80;;;;;;6349892;27;20571;-60
2023/06/16 09:52:44;;;;;;;6.57;6.07;;;27.10;45.70;;;;;;6374577;27;20364;-60
2023/06/16 09:55:48;;;;;;;6.30;5.70;;;27.30;45.60;;;;;;6374242;27;20303;-60
2023/06/16 09:58:52;;;;;;;5.37;4.87;;;27.50;44.90;;;;;;6373435;27;20224;-60
2023/06/16 10:01:56;;;;;;;6.17;5.67;;;27.80;45.30;;;;;;6374211;27;20346;-62
2023/06/16 10:05:02;;;;;;;7.17;6.57;;;28.20;43.60;;;;;;6377182;27;20228;-61
2023/06/16 10:08:08;;;;;;;5.70;5.20;;;28.60;43.40;;;;;;6370339;27;20227;-62
2023/06/16 10:11:13;;;;;;;7.00;6.30;;;28.30;42.60;;;;;;6379422;27;20232;-62
2023/06/16 10:14:19;;;;;;;6.03;5.43;;;28.30;41.90;;;;;;6373286;27;20215;-61
2023/06/16 10:17:26;;;;;;;5.63;5.23;;;28.60;42.10;;;;;;6371877;27;20243;-61
2023/06/16 10:20:31;;;;;;;6.17;5.57;;;28.80;41.30;;;;;;6353808;28;20684;-62
2023/06/16 10:23:36;;;;;;;6.90;6.40;;;28.80;41.50;;;;;;6352308;28;20256;-60
2023/06/16 10:26:39;;;;;;;6.33;5.83;;;29.00;41.70;;;;;;6354008;28;20382;-63
2023/06/16 10:29:46;;;;;;;7.07;6.47;;;29.10;40.40;;;;;;6353639;28;20225;-63
2023/06/16 10:32:52;;;;;;;6.87;5.87;;;29.10;39.70;;;;;;6353477;28;20228;-62
2023/06/16 10:36:00;;;;;;;6.20;5.70;;;29.00;39.20;;;;;;6353597;28;20228;-62
2023/06/16 10:39:23;;;;;;;5.80;4.87;;;28.90;43.30;;;;;;6353507;28;20209;-62
2023/06/16 10:42:33;;;;;;;6.20;5.60;;;28.80;44.60;;;;;;6353118;28;20231;-62
2023/06/16 10:45:39;;;;;;;5.70;5.30;;;28.70;40.10;;;;;;6352910;28;20686;-62
2023/06/16 10:49:11;;;;;;;6.00;5.50;;;28.50;42.30;;;;;;6369547;27;20308;-63
2023/06/16 10:52:17;;;;;;;7.87;6.33;;;28.40;43.30;;;;;;6320158;27;20227;-63
2023/06/16 10:55:36;;;;;;;10.27;7.50;;;28.40;44.00;;;;;;6378057;27;20620;-63
2023/06/16 10:58:39;;;;;;;6.00;5.40;;;28.30;49.30;;;;;;6377934;27;20254;-63
2023/06/16 11:01:46;;;;;;;6.33;5.70;;;28.20;47.60;;;;;;6378173;27;20264;-63
2023/06/16 11:05:15;;;;;;;6.70;6.10;;;28.50;47.70;;;;;;6377837;27;20302;-62
2023/06/16 11:08:18;;;;;;;9.03;6.83;;;28.60;46.20;;;;;;6378270;27;20707;-63
2023/06/16 11:11:23;;;;;;;7.20;6.50;;;28.20;49.60;;;;;;6373747;27;20251;-63
2023/06/16 11:14:26;;;;;;;7.03;6.53;;;27.80;49.40;;;;;;6378521;27;20273;-63
2023/06/16 11:17:30;;;;;;;6.67;6.17;;;27.40;47.50;;;;;;6377536;27;20239;-63
2023/06/16 11:20:35;;;;;;;6.93;6.33;;;27.10;49.30;;;;;;6378536;27;20228;-63
2023/06/16 11:23:38;;;;;;;6.87;6.30;;;26.80;46.40;;;;;;6378099;27;20299;-63
2023/06/16 11:26:43;;;;;;;7.50;6.07;;;26.40;49.50;;;;;;6377924;27;20668;-62
2023/06/16 11:29:48;;;;;;;7.20;6.50;;;25.90;49.60;;;;;;6378256;27;20228;-62
2023/06/16 11:32:52;;;;;;;6.60;6.00;;;25.60;49.40;;;;;;6377835;27;20699;-61
2023/06/16 11:35:57;;;;;;;7.00;6.30;;;25.40;50.30;;;;;;6377964;27;20228;-62
2023/06/16 11:39:04;;;;;;;7.77;7.07;;;25.20;51.00;;;;;;6377881;27;20236;-62
2023/06/16 11:42:13;;;;;;;6.20;5.70;;;25.30;50.50;;;;;;6358756;27;20318;-63
2023/06/16 11:45:16;;;;;;;6.10;5.57;;;25.50;49.00;;;;;;6351914;28;20234;-62
2023/06/16 11:48:20;;;;;;;7.20;6.40;;;25.70;49.50;;;;;;6352467;28;20223;-62
2023/06/16 11:51:24;;;;;;;7.00;6.40;;;26.00;50.90;;;;;;6351908;28;20645;-61
2023/06/16 11:54:28;;;;;;;6.83;5.97;;;26.40;51.00;;;;;;6351766;28;20548;-61
2023/06/16 11:57:37;;;;;;;6.87;6.17;;;26.70;44.30;;;;;;6351752;28;20682;-61
2023/06/16 12:00:40;;;;;;;7.10;6.50;;;27.10;44.10;;;;;;6351612;28;20671;-62
2023/06/16 12:03:46;;;;;;;9.53;6.63;;;27.60;47.30;;;;;;6351840;28;20220;-61
2023/06/16 12:07:06;;;;;;;9.93;6.20;;;27.80;45.80;;;;;;6351593;28;20570;-63
2023/06/16 12:10:10;;;;;;;7.63;6.43;;;27.90;41.40;;;;;;6351560;28;20351;-61
2023/06/16 12:13:15;;;;;;;6.73;6.13;;;27.90;41.30;;;;;;6351771;27;20246;-62
2023/06/16 12:16:18;;;;;;;6.73;6.13;;;28.00;43.70;;;;;;6377977;27;20228;-63
2023/06/16 12:19:22;;;;;;;6.90;6.20;;;28.00;41.70;;;;;;6377368;27;20247;-63
2023/06/16 12:22:33;;;;;;;6.20;5.60;;;28.00;40.40;;;;;;6376814;27;20234;-62
2023/06/16 12:25:37;;;;;;;6.33;5.73;;;27.80;42.30;;;;;;6376639;27;20239;-62
2023/06/16 12:28:46;;;;;;;6.77;6.17;;;27.40;45.40;;;;;;6376312;27;20224;-62
2023/06/16 12:31:53;;;;;;;6.30;5.70;;;27.10;43.70;;;;;;6377122;27;20224;-63
2023/06/16 12:34:56;;;;;;;6.27;5.77;;;27.10;42.70;;;;;;6376053;27;20703;-61
2023/06/16 12:37:59;;;;;;;7.20;6.60;;;27.30;41.80;;;;;;6376122;27;20236;-63
2023/06/16 12:41:03;;;;;;;7.30;6.70;;;27.60;43.40;;;;;;6365913;27;20622;-61
2023/06/16 12:44:08;;;;;;;7.60;6.80;;;27.70;44.10;;;;;;6350042;28;20546;-63
2023/06/16 12:47:11;;;;;;;7.07;6.53;;;27.40;44.50;;;;;;6349927;28;20692;-62
2023/06/16 12:50:14;;;;;;;7.33;6.57;;;27.10;44.90;;;;;;6350738;28;20236;-62
2023/06/16 12:53:18;;;;;;;7.70;6.53;;;26.90;45.40;;;;;;6350812;28;20252;-62
2023/06/16 12:56:24;;;;;;;8.97;7.07;;;26.60;46.40;;;;;;6350921;28;20543;-62
2023/06/16 12:59:29;;;;;;;7.90;7.10;;;26.60;46.70;;;;;;6385134;27;20555;-63
2023/06/16 13:02:32;;;;;;;7.43;6.67;;;26.70;46.50;;;;;;6402644;27;20686;-64
2023/06/16 13:05:36;;;;;;;6.60;5.90;;;26.70;46.30;;;;;;6379702;27;20559;-61
2023/06/16 13:08:41;;;;;;;7.80;7.10;;;26.30;45.20;;;;;;6357325;27;20242;-61
2023/06/16 13:11:44;;;;;;;9.00;7.40;;;26.30;45.00;;;;;;6375182;27;20225;-61
2023/06/16 13:14:48;;;;;;;8.27;7.47;;;26.40;47.30;;;;;;6371688;27;20229;-61
2023/06/16 13:17:52;;;;;;;8.57;7.77;;;26.20;49.80;;;;;;6374951;27;20234;-61
2023/06/16 13:20:55;;;;;;;7.70;7.00;;;25.80;49.50;;;;;;6375126;27;20228;-61
2023/06/16 13:23:58;;;;;;;8.13;7.33;;;25.60;49.20;;;;;;6375440;27;20664;-61
2023/06/16 13:27:02;;;;;;;10.67;7.30;;;25.40;47.00;;;;;;6375396;27;20235;-62
2023/06/16 13:30:08;;;;;;;7.57;6.80;;;25.40;47.10;;;;;;6375285;27;20785;-62
2023/06/16 13:33:11;;;;;;;7.47;6.87;;;25.40;50.20;;;;;;6375346;27;20287;-61
2023/06/16 13:36:18;;;;;;;8.50;6.83;;;25.20;51.70;;;;;;6375167;27;20196;-61
2023/06/16 13:39:21;;;;;;;8.43;7.23;;;25.00;50.70;;;;;;6362427;27;20204;-62
2023/06/16 13:42:24;;;;;;;9.97;7.63;;;25.00;51.80;;;;;;6349309;28;20292;-61
2023/06/16 13:45:29;;;;;;;10.27;7.90;;;25.00;53.40;;;;;;6348357;28;20566;-61
2023/06/16 13:48:33;;;;;;;9.00;7.93;;;24.70;55.60;;;;;;6364274;27;20246;-61
2023/06/16 13:51:36;;;;;;;12.60;7.60;;;24.60;58.50;;;;;;6375898;27;20224;-61
2023/06/16 13:54:39;;;;;;;8.30;7.40;;;24.40;59.90;;;;;;6375504;27;20232;-62
2023/06/16 13:57:42;;;;;;;8.77;7.77;;;24.50;59.40;;;;;;6375031;27;20220;-61
2023/06/16 14:00:47;;;;;;;8.17;7.40;;;24.50;58.20;;;;;;6374826;27;20231;-61
2023/06/16 14:03:50;;;;;;;8.50;6.13;;;24.60;60.70;;;;;;6374957;27;20232;-61
2023/06/16 14:06:53;;;;;;;7.57;6.80;;;24.70;61.70;;;;;;6374675;27;20664;-61
2023/06/16 14:09:57;;;;;;;7.67;6.97;;;24.90;61.10;;;;;;6375021;27;20235;-61
2023/06/16 14:13:00;;;;;;;7.03;6.33;;;24.70;59.50;;;;;;6374744;27;20232;-61
2023/06/16 14:16:05;;;;;;;6.40;5.80;;;24.50;58.60;;;;;;6374761;27;20257;-61
2023/06/16 14:19:08;;;;;;;7.80;6.97;;;24.40;59.20;;;;;;6365359;27;20224;-61
2023/06/16 14:22:12;;;;;;;6.57;5.87;;;24.60;59.40;;;;;;6374844;27;20546;-61
2023/06/16 14:25:15;;;;;;;7.93;7.23;;;24.60;58.80;;;;;;6374895;27;20216;-61
2023/06/16 14:28:18;;;;;;;7.50;6.80;;;24.70;58.20;;;;;;6374324;27;20230;-62
2023/06/16 14:31:23;;;;;;;6.73;5.90;;;24.80;57.80;;;;;;6374456;27;20251;-62
2023/06/16 14:34:29;;;;;;;7.30;6.67;;;24.80;58.30;;;;;;6374330;27;20260;-61
2023/06/16 14:37:33;;;;;;;6.67;6.10;;;24.50;56.20;;;;;;6374949;27;20240;-61
2023/06/16 14:40:36;;;;;;;7.33;6.30;;;24.40;56.00;;;;;;6367809;27;20371;-62
2023/06/16 14:43:39;;;;;;;6.20;5.43;;;24.30;55.50;;;;;;6348687;28;20618;-62
2023/06/16 14:46:44;;;;;;;12.70;6.80;;;24.10;55.60;;;;;;6348437;28;20244;-64
2023/06/16 14:49:47;;;;;;;6.80;6.10;;;24.10;54.40;;;;;;6373562;27;20293;-63
2023/06/16 14:52:50;;;;;;;7.30;5.90;;;23.90;56.10;;;;;;6378278;27;20229;-63
2023/06/16 14:55:53;;;;;;;7.07;6.33;;;23.90;57.50;;;;;;6379142;27;20220;-63
2023/06/16 14:58:56;;;;;;;6.50;5.93;;;24.10;56.50;;;;;;6378923;27;20232;-63
2023/06/16 15:02:02;;;;;;;6.30;5.67;;;24.20;56.90;;;;;;6378953;27;20236;-63
2023/06/16 15:05:07;;;;;;;6.37;5.80;;;24.30;56.50;;;;;;6378440;27;20220;-63
2023/06/16 15:08:10;;;;;;;5.63;5.13;;;24.40;56.50;;;;;;6378566;27;20289;-63
2023/06/16 15:11:13;;;;;;;7.10;6.47;;;24.50;56.70;;;;;;6378490;27;20240;-64
2023/06/16 15:14:16;;;;;;;8.50;6.60;;;24.40;57.10;;;;;;6378497;27;20235;-63
2023/06/16 15:17:21;;;;;;;6.47;5.97;;;24.50;56.90;;;;;;6378506;27;20295;-62
2023/06/16 15:20:24;;;;;;;6.10;5.50;;;24.40;55.40;;;;;;6378431;27;20315;-64
2023/06/16 15:23:27;;;;;;;8.70;6.60;;;24.30;57.40;;;;;;6368956;27;20235;-63
2023/06/16 15:26:33;;;;;;;7.30;6.10;;;24.20;56.40;;;;;;6377474;27;20233;-65
2023/06/16 15:29:36;;;;;;;7.00;6.30;;;24.10;57.30;;;;;;6377851;27;20313;-64
2023/06/16 15:32:40;;;;;;;8.07;6.07;;;24.00;57.40;;;;;;6377978;27;20228;-61
2023/06/16 15:35:44;;;;;;;7.23;6.57;;;24.20;57.70;;;;;;6377844;27;20229;-61
2023/06/16 15:38:47;;;;;;;6.90;6.20;;;24.50;57.90;;;;;;6377641;27;20272;-63
2023/06/16 15:41:50;;;;;;;7.20;6.50;;;24.70;57.80;;;;;;6360904;27;20254;-63
2023/06/16 15:44:54;;;;;;;7.03;6.43;;;24.80;57.40;;;;;;6351775;28;20531;-63
2023/06/16 15:47:59;;;;;;;7.13;6.07;;;24.90;57.20;;;;;;6351693;28;20225;-63
2023/06/16 15:51:02;;;;;;;7.20;6.50;;;24.90;57.10;;;;;;6351878;28;20268;-63
2023/06/16 15:54:05;;;;;;;8.20;7.50;;;25.00;57.00;;;;;;6351596;28;20225;-63
2023/06/16 15:57:08;;;;;;;6.83;6.23;;;25.20;56.30;;;;;;6351734;28;20732;-63
2023/06/16 16:00:14;;;;;;;6.87;6.17;;;25.30;55.10;;;;;;6351506;28;20221;-65